Time;durP1;ratioP1;P1;durP2;ratioP2;P2;SDS_P1;SDS_P2;PMS_P1;PMS_P2;Temp;Humidity;BMP_temperature;BMP_pressure;BME280_temperature;BME280_humidity;BME280_pressure;Samples;Min_cycle;Max_cycle;Signal;HPM_P1;HPM_P2
2022/06/23 00:01:15;;;;;;;3.58;3.03;;;;;;;;;;6197848;28;20228;-74
2022/06/23 00:04:37;;;;;;;5.07;3.00;;;;;;;;;;6178710;28;20226;-74
2022/06/23 00:08:00;;;;;;;4.18;3.78;;;;;;;;;;6179784;28;20488;-74
2022/06/23 00:11:23;;;;;;;5.47;3.55;;;;;;;;;;6198496;28;20233;-74
2022/06/23 00:14:44;;;;;;;3.63;3.33;;;;;;;;;;6178558;28;20367;-74
2022/06/23 00:18:07;;;;;;;4.90;4.03;;;;;;;;;;6204986;28;20804;-74
2022/06/23 00:21:29;;;;;;;3.38;2.90;;;;;;;;;;6172657;28;20225;-73
2022/06/23 00:24:52;;;;;;;4.57;3.72;;;;;;;;;;6194861;28;20229;-75
2022/06/23 00:28:17;;;;;;;5.78;3.90;;;;;;;;;;6194483;28;20221;-72
2022/06/23 00:31:40;;;;;;;6.93;4.18;;;;;;;;;;6178927;28;20256;-73
2022/06/23 00:35:01;;;;;;;4.90;3.83;;;;;;;;;;6204176;28;20312;-74
2022/06/23 00:38:24;;;;;;;4.53;3.90;;;;;;;;;;6174323;28;20232;-75
2022/06/23 00:41:47;;;;;;;4.82;4.15;;;;;;;;;;6197932;28;20220;-75
2022/06/23 00:45:19;;;;;;;5.13;4.63;;;;;;;;;;6168909;28;20241;-73
2022/06/23 00:48:43;;;;;;;4.55;4.03;;;;;;;;;;6172450;28;20977;-74
2022/06/23 00:52:11;;;;;;;4.38;3.58;;;;;;;;;;6196628;28;20246;-73
2022/06/23 00:55:38;;;;;;;5.60;4.45;;;;;;;;;;6180251;28;20225;-74
2022/06/23 00:59:01;;;;;;;5.45;4.20;;;;;;;;;;6186209;28;20237;-74
2022/06/23 01:02:23;;;;;;;6.85;4.00;;;;;;;;;;6202301;28;20233;-74
2022/06/23 01:05:46;;;;;;;4.55;3.78;;;;;;;;;;6186135;28;20242;-74
2022/06/23 01:09:16;;;;;;;5.38;4.65;;;;;;;;;;6193231;28;20229;-73
2022/06/23 01:12:40;;;;;;;4.28;3.80;;;;;;;;;;6195885;28;20679;-75
2022/06/23 01:16:05;;;;;;;4.78;4.47;;;;;;;;;;6192882;28;20237;-74
2022/06/23 01:19:52;;;;;;;6.03;4.35;;;;;;;;;;6196808;28;20287;-73
2022/06/23 01:23:25;;;;;;;4.85;4.22;;;;;;;;;;6193141;28;20320;-73
2022/06/23 01:26:53;;;;;;;6.22;4.88;;;;;;;;;;6194513;28;20233;-74
2022/06/23 01:30:15;;;;;;;7.72;5.07;;;;;;;;;;6193188;28;20273;-73
2022/06/23 01:33:39;;;;;;;5.70;4.38;;;;;;;;;;6190969;28;20233;-73
2022/06/23 01:37:03;;;;;;;5.10;4.60;;;;;;;;;;6196469;28;20233;-75
2022/06/23 01:40:27;;;;;;;5.60;4.97;;;;;;;;;;6195083;28;20249;-74
2022/06/23 01:43:51;;;;;;;6.18;4.82;;;;;;;;;;6181895;28;20241;-73
2022/06/23 01:47:20;;;;;;;5.88;4.55;;;;;;;;;;6203353;28;20248;-73
2022/06/23 01:50:42;;;;;;;4.53;4.22;;;;;;;;;;6185932;28;20229;-73
2022/06/23 01:54:08;;;;;;;5.30;4.80;;;;;;;;;;6192874;28;20221;-74
2022/06/23 01:57:31;;;;;;;5.10;4.70;;;;;;;;;;6190133;28;20628;-73
2022/06/23 02:00:54;;;;;;;5.20;4.80;;;;;;;;;;6193115;28;20217;-73
2022/06/23 02:04:19;;;;;;;5.85;5.25;;;;;;;;;;6193881;28;20229;-73
2022/06/23 02:07:43;;;;;;;5.18;4.63;;;;;;;;;;6193055;28;20244;-73
2022/06/23 02:11:08;;;;;;;6.88;5.15;;;;;;;;;;6193064;28;20233;-73
2022/06/23 02:14:40;;;;;;;5.22;4.75;;;;;;;;;;6191985;28;20233;-73
2022/06/23 02:18:02;;;;;;;4.88;4.57;;;;;;;;;;6196195;28;20228;-73
2022/06/23 02:21:27;;;;;;;5.28;4.88;;;;;;;;;;6194655;28;20233;-74
2022/06/23 02:24:50;;;;;;;5.00;4.28;;;;;;;;;;6192949;28;20233;-74
2022/06/23 02:28:13;;;;;;;4.75;4.45;;;;;;;;;;6191305;28;20245;-74
2022/06/23 02:31:37;;;;;;;5.35;4.85;;;;;;;;;;6181197;28;20697;-73
2022/06/23 02:35:01;;;;;;;5.18;4.78;;;;;;;;;;6193555;28;20228;-73
2022/06/23 02:38:25;;;;;;;4.35;4.00;;;;;;;;;;6191967;28;20233;-72
2022/06/23 02:41:48;;;;;;;4.45;4.07;;;;;;;;;;6193496;28;20261;-73
2022/06/23 02:45:20;;;;;;;4.93;4.50;;;;;;;;;;6187828;28;20233;-73
2022/06/23 02:48:47;;;;;;;4.75;4.35;;;;;;;;;;6187903;28;20240;-73
2022/06/23 02:52:20;;;;;;;5.63;5.07;;;;;;;;;;6191612;28;20248;-73
2022/06/23 02:55:56;;;;;;;8.48;5.63;;;;;;;;;;6189875;28;20237;-73
2022/06/23 02:59:26;;;;;;;6.50;4.90;;;;;;;;;;6187736;28;20228;-73
2022/06/23 03:02:54;;;;;;;7.38;5.05;;;;;;;;;;6190938;28;20224;-73
2022/06/23 03:06:16;;;;;;;5.38;4.55;;;;;;;;;;6191358;28;21716;-73
2022/06/23 03:09:39;;;;;;;49.03;44.90;;;;;;;;;;6193402;28;20646;-73
2022/06/23 03:13:06;;;;;;;20.30;18.45;;;;;;;;;;6194974;28;20235;-72
2022/06/23 03:16:30;;;;;;;7.13;6.53;;;;;;;;;;6191563;28;20252;-73
2022/06/23 03:19:55;;;;;;;6.97;4.93;;;;;;;;;;6193032;28;20233;-72
2022/06/23 03:23:18;;;;;;;4.40;4.10;;;;;;;;;;6195867;28;20241;-73
2022/06/23 03:26:40;;;;;;;4.70;4.30;;;;;;;;;;6192862;28;20229;-73
2022/06/23 03:30:02;;;;;;;6.60;6.00;;;;;;;;;;6193898;28;20229;-72
2022/06/23 03:33:31;;;;;;;5.18;4.78;;;;;;;;;;6195305;28;20252;-74
2022/06/23 03:36:55;;;;;;;5.47;5.07;;;;;;;;;;6195888;28;20229;-74
2022/06/23 03:43:59;;;;;;;7.07;5.50;;;;;;;;;;6190269;28;20229;-73
2022/06/23 03:47:22;;;;;;;5.40;4.90;;;;;;;;;;6195527;28;20226;-72
2022/06/23 03:50:48;;;;;;;7.50;6.90;;;;;;;;;;6194707;28;20225;-73
2022/06/23 03:54:12;;;;;;;6.50;5.97;;;;;;;;;;6191504;28;20232;-73
2022/06/23 03:57:36;;;;;;;7.07;5.55;;;;;;;;;;6185351;28;20226;-73
2022/06/23 04:00:59;;;;;;;6.47;5.88;;;;;;;;;;6191478;28;20507;-72
2022/06/23 04:04:21;;;;;;;5.75;5.25;;;;;;;;;;6188246;28;20833;-73
2022/06/23 04:07:46;;;;;;;6.75;6.15;;;;;;;;;;6188606;28;20619;-73
2022/06/23 04:14:46;;;;;;;9.57;8.68;;;;;;;;;;6206294;28;20225;-73
2022/06/23 04:18:09;;;;;;;6.43;5.78;;;;;;;;;;6193024;28;20225;-73
2022/06/23 04:21:31;;;;;;;6.32;5.72;;;;;;;;;;6191446;28;20241;-73
2022/06/23 04:24:56;;;;;;;7.22;6.47;;;;;;;;;;6194459;28;20237;-73
2022/06/23 04:28:21;;;;;;;7.40;6.50;;;;;;;;;;6195391;28;20964;-73
2022/06/23 04:31:47;;;;;;;9.52;6.85;;;;;;;;;;6191882;28;20249;-73
2022/06/23 04:35:11;;;;;;;7.13;6.00;;;;;;;;;;6196154;28;20229;-74
2022/06/23 04:38:33;;;;;;;6.72;6.10;;;;;;;;;;6196592;28;20248;-73
2022/06/23 04:41:59;;;;;;;7.07;5.53;;;;;;;;;;6198388;28;20787;-72
2022/06/23 04:45:35;;;;;;;5.95;5.45;;;;;;;;;;6203089;28;20233;-73
2022/06/23 04:48:57;;;;;;;5.20;4.70;;;;;;;;;;6201732;28;26141;-73
2022/06/23 04:52:19;;;;;;;7.05;5.05;;;;;;;;;;6202919;28;20229;-73
2022/06/23 04:55:39;;;;;;;6.80;5.00;;;;;;;;;;6200966;28;20229;-70
2022/06/23 04:59:03;;;;;;;5.78;5.28;;;;;;;;;;6201204;28;20229;-73
2022/06/23 05:02:29;;;;;;;5.00;4.60;;;;;;;;;;6189812;28;20242;-74
2022/06/23 05:05:54;;;;;;;5.40;4.95;;;;;;;;;;6202501;28;20229;-74
2022/06/23 05:09:19;;;;;;;5.32;4.85;;;;;;;;;;6202672;28;20237;-74
2022/06/23 05:12:41;;;;;;;5.90;4.78;;;;;;;;;;6190232;28;20327;-74
2022/06/23 05:16:05;;;;;;;4.85;4.45;;;;;;;;;;6199704;28;20224;-73
2022/06/23 05:19:27;;;;;;;4.25;3.88;;;;;;;;;;6199342;28;20260;-73
2022/06/23 05:22:48;;;;;;;5.50;4.50;;;;;;;;;;6201237;28;20221;-72
2022/06/23 05:26:13;;;;;;;3.92;3.58;;;;;;;;;;6197947;28;20612;-73
2022/06/23 05:29:36;;;;;;;5.10;3.92;;;;;;;;;;6199748;28;20245;-73
2022/06/23 05:32:59;;;;;;;4.75;4.35;;;;;;;;;;6196342;28;21118;-73
2022/06/23 05:36:21;;;;;;;6.47;4.47;;;;;;;;;;6194751;28;20312;-75
2022/06/23 05:39:45;;;;;;;5.78;4.82;;;;;;;;;;6200623;28;20252;-75
2022/06/23 05:43:08;;;;;;;6.07;4.50;;;;;;;;;;6191094;28;20237;-75
2022/06/23 05:46:29;;;;;;;3.90;3.50;;;;;;;;;;6183438;28;20252;-70
2022/06/23 05:49:54;;;;;;;4.68;3.67;;;;;;;;;;6178646;28;20233;-70
2022/06/23 05:53:17;;;;;;;9.40;4.85;;;;;;;;;;6192167;28;20764;-72
2022/06/23 05:56:39;;;;;;;8.02;4.50;;;;;;;;;;6185171;28;20233;-71
2022/06/23 06:00:04;;;;;;;5.00;3.40;;;;;;;;;;6200591;28;20713;-72
2022/06/23 06:03:29;;;;;;;6.18;3.78;;;;;;;;;;6199579;28;20829;-73
2022/06/23 06:06:51;;;;;;;4.22;3.33;;;;;;;;;;6199492;28;20533;-72
2022/06/23 06:10:14;;;;;;;4.70;4.20;;;;;;;;;;6197522;28;20241;-71
2022/06/23 06:13:36;;;;;;;6.85;4.13;;;;;;;;;;6197289;28;20221;-72
2022/06/23 06:16:57;;;;;;;4.07;3.67;;;;;;;;;;6201681;28;20229;-73
2022/06/23 06:20:22;;;;;;;7.05;3.35;;;;;;;;;;6206683;28;20232;-73
2022/06/23 06:23:47;;;;;;;8.80;4.65;;;;;;;;;;6183320;28;20237;-71
2022/06/23 06:27:10;;;;;;;5.15;3.35;;;;;;;;;;6193483;28;20229;-71
2022/06/23 06:30:32;;;;;;;5.93;5.03;;;;;;;;;;6187939;28;20265;-70
2022/06/23 06:33:57;;;;;;;7.63;3.58;;;;;;;;;;6185867;28;20225;-71
2022/06/23 06:37:19;;;;;;;2.97;2.70;;;;;;;;;;6201942;28;20229;-71
2022/06/23 06:40:43;;;;;;;5.93;4.78;;;;;;;;;;6185830;28;20490;-71
2022/06/23 06:44:04;;;;;;;12.57;4.68;;;;;;;;;;6184946;28;20225;-69
2022/06/23 06:47:26;;;;;;;4.55;2.97;;;;;;;;;;6182555;28;20237;-72
2022/06/23 06:50:47;;;;;;;6.65;3.42;;;;;;;;;;6189867;28;20281;-73
2022/06/23 06:54:15;;;;;;;4.57;3.20;;;;;;;;;;6197176;28;20228;-72
2022/06/23 06:57:39;;;;;;;4.38;3.45;;;;;;;;;;6199540;28;20240;-72
2022/06/23 07:01:01;;;;;;;5.22;3.67;;;;;;;;;;6193215;28;20237;-70
2022/06/23 07:04:24;;;;;;;6.50;3.50;;;;;;;;;;6196459;28;20225;-71
2022/06/23 07:07:48;;;;;;;4.03;3.55;;;;;;;;;;6187815;28;20245;-70
2022/06/23 07:11:12;;;;;;;6.93;4.03;;;;;;;;;;6191318;28;20237;-72
2022/06/23 07:14:38;;;;;;;5.18;3.25;;;;;;;;;;6192642;28;20500;-71
2022/06/23 07:18:02;;;;;;;4.18;3.30;;;;;;;;;;6190522;28;20478;-70
2022/06/23 07:21:25;;;;;;;6.45;4.13;;;;;;;;;;6183118;28;20236;-72
2022/06/23 07:24:49;;;;;;;5.18;3.15;;;;;;;;;;6188533;28;20229;-73
2022/06/23 07:28:14;;;;;;;3.72;3.28;;;;;;;;;;6187423;28;20225;-72
2022/06/23 07:31:42;;;;;;;2.83;2.63;;;;;;;;;;6178295;28;20549;-73
2022/06/23 07:35:07;;;;;;;4.60;2.40;;;;;;;;;;6189308;28;20240;-74
2022/06/23 07:38:30;;;;;;;10.75;4.57;;;;;;;;;;6188645;28;20325;-73
2022/06/23 07:41:54;;;;;;;6.05;3.53;;;;;;;;;;6190896;28;20251;-71
2022/06/23 07:45:16;;;;;;;4.80;3.88;;;;;;;;;;6184022;28;20994;-69
2022/06/23 07:48:38;;;;;;;5.47;3.38;;;;;;;;;;6195299;28;20237;-72
2022/06/23 07:52:00;;;;;;;7.53;3.58;;;;;;;;;;6197761;28;20229;-70
2022/06/23 07:55:23;;;;;;;3.60;3.30;;;;;;;;;;6197981;28;20312;-73
2022/06/23 07:58:46;;;;;;;3.70;3.33;;;;;;;;;;6199778;28;20233;-72
2022/06/23 08:02:08;;;;;;;4.65;3.28;;;;;;;;;;6202556;28;20244;-72
2022/06/23 08:05:34;;;;;;;3.58;3.28;;;;;;;;;;6197819;28;20245;-72
2022/06/23 08:08:59;;;;;;;8.85;4.82;;;;;;;;;;6195016;28;20241;-71
2022/06/23 08:19:42;;;;;;;6.32;3.70;;;;;;;;;;6198432;28;20244;-71
2022/06/23 08:23:05;;;;;;;4.53;3.72;;;;;;;;;;6194867;28;20225;-74
2022/06/23 08:26:26;;;;;;;5.40;3.63;;;;;;;;;;6202637;28;20251;-72
2022/06/23 08:29:49;;;;;;;5.40;3.95;;;;;;;;;;6189248;28;20237;-73
2022/06/23 08:33:10;;;;;;;3.72;3.42;;;;;;;;;;6198311;28;20237;-75
2022/06/23 08:36:33;;;;;;;3.38;3.08;;;;;;;;;;6204095;28;20229;-72
2022/06/23 08:39:58;;;;;;;5.80;3.75;;;;;;;;;;6193724;28;20226;-73
2022/06/23 08:43:23;;;;;;;5.35;3.88;;;;;;;;;;6192508;28;20257;-76
2022/06/23 08:46:47;;;;;;;7.25;4.55;;;;;;;;;;6194449;28;20229;-75
2022/06/23 08:50:11;;;;;;;5.43;4.07;;;;;;;;;;6196086;28;20225;-73
2022/06/23 08:53:35;;;;;;;3.75;3.35;;;;;;;;;;6197760;28;20238;-74
2022/06/23 08:57:03;;;;;;;5.75;3.45;;;;;;;;;;6191397;28;20329;-73
2022/06/23 09:00:27;;;;;;;3.85;3.53;;;;;;;;;;6193209;28;20233;-70
2022/06/23 09:03:52;;;;;;;5.10;3.33;;;;;;;;;;6194832;28;20229;-72
2022/06/23 09:07:16;;;;;;;4.30;3.90;;;;;;;;;;6193532;28;20221;-73
2022/06/23 09:10:44;;;;;;;4.43;3.33;;;;;;;;;;6194233;28;20244;-73
2022/06/23 09:14:19;;;;;;;3.15;2.85;;;;;;;;;;6200770;28;20228;-72
2022/06/23 09:17:55;;;;;;;3.55;3.08;;;;;;;;;;6197532;28;20225;-72
2022/06/23 09:21:25;;;;;;;4.38;3.97;;;;;;;;;;6176671;28;20233;-77
2022/06/23 09:24:55;;;;;;;5.45;3.25;;;;;;;;;;6193969;28;20236;-75
2022/06/23 09:28:17;;;;;;;5.88;4.35;;;;;;;;;;6199154;28;20264;-74
2022/06/23 09:31:45;;;;;;;7.22;4.43;;;;;;;;;;6188405;28;20232;-74
2022/06/23 09:35:17;;;;;;;4.50;4.03;;;;;;;;;;6196056;28;20231;-74
2022/06/23 09:38:53;;;;;;;5.82;3.10;;;;;;;;;;6198024;28;20233;-76
2022/06/23 09:42:23;;;;;;;8.13;3.35;;;;;;;;;;6200206;28;20229;-73
2022/06/23 09:45:51;;;;;;;7.38;4.55;;;;;;;;;;6200181;28;20686;-74
2022/06/23 09:49:30;;;;;;;6.50;3.60;;;;;;;;;;6196547;28;20237;-75
2022/06/23 09:53:06;;;;;;;4.22;3.28;;;;;;;;;;6182683;28;20221;-76
2022/06/23 09:56:34;;;;;;;4.80;3.55;;;;;;;;;;6190833;28;20241;-73
2022/06/23 10:00:08;;;;;;;4.38;3.33;;;;;;;;;;6187231;28;20670;-75
2022/06/23 10:03:41;;;;;;;2.80;2.25;;;;;;;;;;6179479;28;20244;-78
2022/06/23 10:07:17;;;;;;;5.72;4.25;;;;;;;;;;6184315;28;20240;-74
2022/06/23 10:10:48;;;;;;;3.22;2.92;;;;;;;;;;6186075;28;20260;-79
2022/06/23 10:14:16;;;;;;;3.63;2.97;;;;;;;;;;6182394;28;20232;-75
2022/06/23 10:17:47;;;;;;;5.28;2.70;;;;;;;;;;6174538;28;20233;-73
2022/06/23 10:21:14;;;;;;;5.10;3.25;;;;;;;;;;6189347;28;20229;-72
2022/06/23 10:24:43;;;;;;;3.85;3.03;;;;;;;;;;6190282;28;20560;-74
2022/06/23 10:28:19;;;;;;;4.10;3.35;;;;;;;;;;6201449;28;20229;-74
2022/06/23 10:31:46;;;;;;;3.38;2.63;;;;;;;;;;6197883;28;21581;-73
2022/06/23 10:35:18;;;;;;;5.57;2.83;;;;;;;;;;6191685;28;20261;-75
2022/06/23 10:38:45;;;;;;;4.25;2.80;;;;;;;;;;6195981;28;20229;-73
2022/06/23 10:42:20;;;;;;;3.13;2.83;;;;;;;;;;6209323;28;20229;-74
2022/06/23 10:45:49;;;;;;;3.33;2.17;;;;;;;;;;6201681;28;20229;-75
2022/06/23 10:49:27;;;;;;;5.18;3.05;;;;;;;;;;6192263;28;20236;-76
2022/06/23 10:52:54;;;;;;;6.35;2.63;;;;;;;;;;6191266;28;20233;-76
2022/06/23 10:56:23;;;;;;;2.55;2.10;;;;;;;;;;6192685;28;20233;-76
2022/06/23 10:59:54;;;;;;;3.63;2.72;;;;;;;;;;6193726;28;20232;-76
2022/06/23 11:03:48;;;;;;;2.95;2.65;;;;;;;;;;6193540;28;20254;-74
2022/06/23 11:07:26;;;;;;;2.97;2.78;;;;;;;;;;6144386;28;20238;-74
2022/06/23 11:10:55;;;;;;;4.13;2.63;;;;;;;;;;6139232;28;20257;-72
2022/06/23 11:14:20;;;;;;;2.80;2.53;;;;;;;;;;6189416;28;20232;-77
2022/06/23 11:17:47;;;;;;;3.67;2.67;;;;;;;;;;6189353;28;20324;-76
2022/06/23 11:21:16;;;;;;;2.63;2.42;;;;;;;;;;6189381;28;20237;-76
2022/06/23 11:24:44;;;;;;;5.55;3.13;;;;;;;;;;6191928;28;20241;-75
2022/06/23 11:28:08;;;;;;;2.72;2.00;;;;;;;;;;6186445;28;20241;-72
2022/06/23 11:31:36;;;;;;;4.07;2.00;;;;;;;;;;6187977;28;20540;-76
2022/06/23 11:35:05;;;;;;;3.75;2.00;;;;;;;;;;6194008;28;20264;-75
2022/06/23 11:38:46;;;;;;;3.17;2.00;;;;;;;;;;6200047;28;20248;-74
2022/06/23 11:42:17;;;;;;;3.78;2.30;;;;;;;;;;6192632;28;20252;-73
2022/06/23 11:45:46;;;;;;;2.88;2.25;;;;;;;;;;6191902;28;20228;-78
2022/06/23 11:49:13;;;;;;;2.47;2.28;;;;;;;;;;6198407;28;20256;-70
2022/06/23 11:52:43;;;;;;;2.20;2.00;;;;;;;;;;6197762;28;20238;-69
2022/06/23 11:56:07;;;;;;;2.60;1.55;;;;;;;;;;6197836;28;20229;-69
2022/06/23 11:59:35;;;;;;;5.75;2.70;;;;;;;;;;6195419;28;20222;-68
2022/06/23 12:02:59;;;;;;;2.70;2.45;;;;;;;;;;6193383;28;20228;-72
2022/06/23 12:06:24;;;;;;;3.22;2.92;;;;;;;;;;6200435;28;20233;-74
2022/06/23 12:09:47;;;;;;;2.92;2.55;;;;;;;;;;6195969;28;20316;-72
2022/06/23 12:13:07;;;;;;;2.75;2.53;;;;;;;;;;6190896;28;20521;-74
2022/06/23 12:16:30;;;;;;;5.38;2.30;;;;;;;;;;6185690;28;20229;-73
2022/06/23 12:19:54;;;;;;;2.95;2.08;;;;;;;;;;6194450;28;20244;-75
2022/06/23 12:23:17;;;;;;;4.72;3.08;;;;;;;;;;6195451;28;20229;-82
2022/06/23 12:26:40;;;;;;;3.22;2.92;;;;;;;;;;6195883;28;20622;-77
2022/06/23 12:30:05;;;;;;;2.42;2.22;;;;;;;;;;6194645;28;20233;-76
2022/06/23 12:33:34;;;;;;;3.10;2.28;;;;;;;;;;6205846;28;20241;-73
2022/06/23 12:37:00;;;;;;;2.67;2.47;;;;;;;;;;6197199;28;20645;-73
2022/06/23 12:40:24;;;;;;;2.85;2.55;;;;;;;;;;6197830;28;20257;-74
2022/06/23 12:43:48;;;;;;;4.43;3.08;;;;;;;;;;6202673;28;20237;-69
2022/06/23 12:47:13;;;;;;;3.50;2.67;;;;;;;;;;6198992;28;20222;-70
2022/06/23 12:50:45;;;;;;;3.25;2.63;;;;;;;;;;6203092;28;20241;-71
2022/06/23 12:54:25;;;;;;;3.08;2.88;;;;;;;;;;6199718;28;20607;-71
2022/06/23 12:57:52;;;;;;;2.60;2.40;;;;;;;;;;6202495;28;20245;-73
2022/06/23 13:01:14;;;;;;;3.03;2.83;;;;;;;;;;6196353;28;20241;-73
2022/06/23 13:04:40;;;;;;;7.68;3.58;;;;;;;;;;6208420;28;20355;-74
2022/06/23 13:08:06;;;;;;;3.65;2.60;;;;;;;;;;6206692;28;20245;-76
2022/06/23 13:11:29;;;;;;;3.95;3.33;;;;;;;;;;6197169;28;20332;-76
2022/06/23 13:14:51;;;;;;;3.28;2.97;;;;;;;;;;6199013;28;20230;-81
2022/06/23 13:18:17;;;;;;;2.60;2.38;;;;;;;;;;6201899;28;20226;-78
2022/06/23 13:21:40;;;;;;;3.08;2.88;;;;;;;;;;6198780;28;20233;-72
2022/06/23 13:25:02;;;;;;;3.83;3.40;;;;;;;;;;6198009;28;20229;-77
2022/06/23 13:28:29;;;;;;;3.75;2.75;;;;;;;;;;6198921;28;20930;-73
2022/06/23 13:31:52;;;;;;;4.40;2.80;;;;;;;;;;6191958;28;20225;-73
2022/06/23 13:35:15;;;;;;;4.40;2.78;;;;;;;;;;6191559;28;20230;-73
2022/06/23 13:38:40;;;;;;;3.45;2.75;;;;;;;;;;6202846;28;20225;-72
2022/06/23 13:42:06;;;;;;;3.38;2.47;;;;;;;;;;6193356;28;20636;-73
2022/06/23 13:45:31;;;;;;;3.83;2.10;;;;;;;;;;6198302;28;20229;-74
2022/06/23 13:48:55;;;;;;;4.38;2.83;;;;;;;;;;6199678;28;20882;-73
2022/06/23 13:52:19;;;;;;;2.72;2.30;;;;;;;;;;6205312;28;20221;-73
2022/06/23 13:55:43;;;;;;;2.33;2.13;;;;;;;;;;6205223;28;20229;-75
2022/06/23 13:59:09;;;;;;;3.38;2.33;;;;;;;;;;6197798;28;20237;-73
2022/06/23 14:02:33;;;;;;;2.95;2.63;;;;;;;;;;6194957;28;20229;-73
2022/06/23 14:05:56;;;;;;;3.28;2.45;;;;;;;;;;6196755;28;20263;-74
2022/06/23 14:09:21;;;;;;;2.28;2.10;;;;;;;;;;6192722;28;20233;-73
2022/06/23 14:12:47;;;;;;;2.78;2.20;;;;;;;;;;6191920;28;20256;-72
2022/06/23 14:16:13;;;;;;;3.08;2.78;;;;;;;;;;6198975;28;20237;-75
2022/06/23 14:19:39;;;;;;;2.22;2.13;;;;;;;;;;6187320;28;20674;-75
2022/06/23 14:23:03;;;;;;;3.08;2.42;;;;;;;;;;6194716;28;20228;-75
2022/06/23 14:26:25;;;;;;;2.28;2.08;;;;;;;;;;6201829;28;20241;-75
2022/06/23 14:29:48;;;;;;;3.70;1.73;;;;;;;;;;6201889;28;20248;-73
2022/06/23 14:33:14;;;;;;;2.42;2.30;;;;;;;;;;6199241;28;20236;-72
2022/06/23 14:36:36;;;;;;;3.60;2.38;;;;;;;;;;6194586;28;20694;-74
2022/06/23 14:39:59;;;;;;;5.40;2.70;;;;;;;;;;6201214;28;20226;-73
2022/06/23 14:43:28;;;;;;;3.33;2.30;;;;;;;;;;6200062;28;20602;-73
2022/06/23 14:46:54;;;;;;;1.77;1.60;;;;;;;;;;6195853;28;20225;-72
2022/06/23 14:50:24;;;;;;;3.83;2.30;;;;;;;;;;6194551;28;20354;-72
2022/06/23 14:53:48;;;;;;;1.92;1.83;;;;;;;;;;6204410;28;20315;-75
2022/06/23 14:57:17;;;;;;;4.35;3.10;;;;;;;;;;6199501;28;20229;-73
2022/06/23 15:00:48;;;;;;;2.90;2.70;;;;;;;;;;6194426;28;20691;-73
2022/06/23 15:04:13;;;;;;;6.35;2.97;;;;;;;;;;6188151;28;20625;-74
2022/06/23 15:07:38;;;;;;;2.25;2.08;;;;;;;;;;6199295;28;20248;-73
2022/06/23 15:11:02;;;;;;;3.97;3.45;;;;;;;;;;6203402;28;20232;-75
2022/06/23 15:14:25;;;;;;;2.58;2.38;;;;;;;;;;6199834;28;20237;-70
2022/06/23 15:17:51;;;;;;;2.28;2.08;;;;;;;;;;6177409;28;20812;-79
2022/06/23 15:24:54;;;;;;;3.13;2.22;;;;;;;;;;6199659;28;20232;-78
2022/06/23 15:28:21;;;;;;;2.50;2.30;;;;;;;;;;6195900;28;20240;-77
2022/06/23 15:31:47;;;;;;;2.80;2.60;;;;;;;;;;6197220;28;20634;-78
2022/06/23 15:35:15;;;;;;;2.42;2.22;;;;;;;;;;6194395;28;20276;-78
2022/06/23 15:38:42;;;;;;;3.22;2.35;;;;;;;;;;6192956;28;20233;-78
2022/06/23 15:42:09;;;;;;;4.20;1.85;;;;;;;;;;6476600;22;20279;-78
2022/06/23 15:45:39;;;;;;;3.17;2.45;;;;;;;;;;6176542;28;20494;-79
2022/06/23 15:49:01;;;;;;;2.83;2.45;;;;;;;;;;6174874;28;20233;-80
2022/06/23 15:52:26;;;;;;;3.13;2.15;;;;;;;;;;6173588;28;20233;-80
2022/06/23 15:55:49;;;;;;;2.70;2.50;;;;;;;;;;6173488;28;20232;-78
2022/06/23 15:59:14;;;;;;;3.25;2.60;;;;;;;;;;6178817;28;20233;-79
2022/06/23 16:02:40;;;;;;;2.95;2.13;;;;;;;;;;6182551;28;20269;-77
2022/06/23 16:06:02;;;;;;;3.72;2.47;;;;;;;;;;6180075;28;20238;-78
2022/06/23 16:09:31;;;;;;;2.90;2.15;;;;;;;;;;6174764;28;20329;-78
2022/06/23 16:12:53;;;;;;;6.97;6.38;;;;;;;;;;6176785;28;20226;-78
2022/06/23 16:16:15;;;;;;;6.68;5.85;;;;;;;;;;6163434;28;20321;-79
2022/06/23 16:19:37;;;;;;;9.02;8.05;;;;;;;;;;6163418;28;20238;-78
2022/06/23 16:23:00;;;;;;;7.85;7.25;;;;;;;;;;6173294;28;20615;-78
2022/06/23 16:26:24;;;;;;;5.88;5.10;;;;;;;;;;6184804;28;20320;-77
2022/06/23 16:29:48;;;;;;;10.75;9.82;;;;;;;;;;6182625;28;20237;-77
2022/06/23 16:33:24;;;;;;;3.97;3.40;;;;;;;;;;6190590;28;20222;-77
2022/06/23 16:36:49;;;;;;;7.00;6.32;;;;;;;;;;6183882;28;20328;-75
2022/06/23 16:40:16;;;;;;;5.20;4.70;;;;;;;;;;6177624;28;20230;-77
2022/06/23 16:43:39;;;;;;;6.75;6.18;;;;;;;;;;6176536;28;20245;-77
2022/06/23 16:47:06;;;;;;;4.13;3.78;;;;;;;;;;6171856;28;20261;-77
2022/06/23 16:50:32;;;;;;;5.05;3.90;;;;;;;;;;6177118;28;20233;-77
2022/06/23 16:53:56;;;;;;;9.15;7.95;;;;;;;;;;6180296;28;20579;-76
2022/06/23 16:57:19;;;;;;;3.28;3.08;;;;;;;;;;6181602;28;20225;-76
2022/06/23 17:00:56;;;;;;;3.95;3.60;;;;;;;;;;6168571;28;20884;-75
2022/06/23 17:04:19;;;;;;;4.38;3.15;;;;;;;;;;6166362;28;20230;-76
2022/06/23 17:07:44;;;;;;;3.15;2.72;;;;;;;;;;6166244;28;21825;-78
2022/06/23 17:11:07;;;;;;;2.95;2.35;;;;;;;;;;6175842;28;20246;-77
2022/06/23 17:14:30;;;;;;;3.40;3.10;;;;;;;;;;6170801;28;20248;-77
2022/06/23 17:17:55;;;;;;;3.25;2.35;;;;;;;;;;6187236;28;20662;-76
2022/06/23 17:21:17;;;;;;;4.63;2.50;;;;;;;;;;6177581;28;20709;-76
2022/06/23 17:24:42;;;;;;;3.90;2.88;;;;;;;;;;6177557;28;20320;-78
2022/06/23 17:28:08;;;;;;;4.57;4.22;;;;;;;;;;6165309;28;20309;-76
2022/06/23 17:31:31;;;;;;;5.68;5.13;;;;;;;;;;6173574;28;20834;-76
2022/06/23 17:34:58;;;;;;;5.00;4.53;;;;;;;;;;6180522;28;20233;-76
2022/06/23 17:45:44;;;;;;;5.63;5.10;;;;;;;;;;6172299;28;20515;-76
2022/06/23 17:49:08;;;;;;;3.97;3.50;;;;;;;;;;6167642;28;20237;-80
2022/06/23 17:52:33;;;;;;;5.18;3.75;;;;;;;;;;6170396;28;20230;-73
2022/06/23 17:55:54;;;;;;;3.28;2.97;;;;;;;;;;6170235;28;20591;-67
2022/06/23 17:59:18;;;;;;;2.75;2.30;;;;;;;;;;6166074;28;20241;-70
2022/06/23 18:02:44;;;;;;;6.03;2.60;;;;;;;;;;6176137;28;20234;-70
2022/06/23 18:06:09;;;;;;;9.32;8.52;;;;;;;;;;6178167;28;20787;-70
2022/06/23 18:09:44;;;;;;;6.18;5.68;;;;;;;;;;6171233;28;20541;-69
2022/06/23 18:13:08;;;;;;;6.78;6.28;;;;;;;;;;6178002;28;20249;-69
2022/06/23 18:16:31;;;;;;;4.70;4.30;;;;;;;;;;6176320;28;20522;-70
2022/06/23 18:19:58;;;;;;;3.28;2.00;;;;;;;;;;6172140;28;20714;-69
2022/06/23 18:23:21;;;;;;;2.05;1.85;;;;;;;;;;6164065;28;20234;-70
2022/06/23 18:26:44;;;;;;;1.77;1.65;;;;;;;;;;6165749;28;20273;-70
2022/06/23 18:30:08;;;;;;;2.17;1.98;;;;;;;;;;6175178;28;20242;-69
2022/06/23 18:33:37;;;;;;;2.42;2.15;;;;;;;;;;6177432;28;20783;-70
2022/06/23 18:37:04;;;;;;;4.88;4.47;;;;;;;;;;6176965;28;20546;-69
2022/06/23 18:40:29;;;;;;;2.53;2.33;;;;;;;;;;6170622;28;20234;-69
2022/06/23 18:43:52;;;;;;;5.70;5.20;;;;;;;;;;6175502;28;20233;-70
2022/06/23 18:47:15;;;;;;;4.13;3.55;;;;;;;;;;6165382;28;20236;-68
2022/06/23 18:50:42;;;;;;;2.60;2.17;;;;;;;;;;6169106;28;20628;-78
2022/06/23 18:54:07;;;;;;;4.93;3.25;;;;;;;;;;6167885;28;20816;-79
2022/06/23 18:57:30;;;;;;;2.50;2.30;;;;;;;;;;6169565;28;20639;-74
2022/06/23 19:00:55;;;;;;;7.65;5.72;;;;;;;;;;6170562;28;21759;-77
2022/06/23 19:04:19;;;;;;;6.72;3.22;;;;;;;;;;6178084;28;20888;-78
2022/06/23 19:07:43;;;;;;;2.70;2.50;;;;;;;;;;6175653;28;20229;-74
2022/06/23 19:11:08;;;;;;;5.00;4.60;;;;;;;;;;6173682;28;20269;-74
2022/06/23 19:14:32;;;;;;;9.10;8.20;;;;;;;;;;6173346;28;20229;-73
2022/06/23 19:17:57;;;;;;;3.38;2.95;;;;;;;;;;6172746;28;20229;-76
2022/06/23 19:21:21;;;;;;;2.95;2.65;;;;;;;;;;6175330;28;20508;-77
2022/06/23 19:24:49;;;;;;;2.30;2.10;;;;;;;;;;6170146;28;20653;-74
2022/06/23 19:28:16;;;;;;;2.53;2.08;;;;;;;;;;6171689;28;20229;-73
2022/06/23 19:31:38;;;;;;;2.45;2.03;;;;;;;;;;6164053;28;20242;-73
2022/06/23 19:35:01;;;;;;;1.42;1.33;;;;;;;;;;6170941;28;21201;-73
2022/06/23 19:38:25;;;;;;;1.95;1.75;;;;;;;;;;6172474;28;20324;-72
2022/06/23 19:41:50;;;;;;;1.50;1.40;;;;;;;;;;6171245;28;20562;-76
2022/06/23 19:45:19;;;;;;;1.80;1.70;;;;;;;;;;6172343;28;20238;-75
2022/06/23 19:48:42;;;;;;;2.85;2.05;;;;;;;;;;6170563;28;20226;-76
2022/06/23 19:52:03;;;;;;;1.65;1.55;;;;;;;;;;6173479;28;20238;-73
2022/06/23 19:55:25;;;;;;;1.92;1.70;;;;;;;;;;6171898;28;20237;-74
2022/06/23 19:58:51;;;;;;;2.65;1.75;;;;;;;;;;6175586;28;20229;-75
2022/06/23 20:02:19;;;;;;;3.28;1.75;;;;;;;;;;6174484;28;20249;-74
2022/06/23 20:05:49;;;;;;;1.73;1.63;;;;;;;;;;6177157;28;20257;-76
2022/06/23 20:09:17;;;;;;;2.47;1.52;;;;;;;;;;6178473;28;20233;-73
2022/06/23 20:12:39;;;;;;;1.90;1.80;;;;;;;;;;6173932;28;20237;-75
2022/06/23 20:16:02;;;;;;;1.75;1.35;;;;;;;;;;6179760;28;20313;-79
2022/06/23 20:19:29;;;;;;;2.85;2.05;;;;;;;;;;6176020;28;20316;-75
2022/06/23 20:22:55;;;;;;;2.45;2.05;;;;;;;;;;6178574;28;20233;-79
2022/06/23 20:26:22;;;;;;;2.50;2.15;;;;;;;;;;6178488;28;20319;-74
2022/06/23 20:29:48;;;;;;;2.97;1.83;;;;;;;;;;6173846;28;20261;-73
2022/06/23 20:33:23;;;;;;;1.98;1.85;;;;;;;;;;6170338;28;20245;-75
2022/06/23 20:36:49;;;;;;;2.58;2.38;;;;;;;;;;6175345;28;20237;-81
2022/06/23 20:40:25;;;;;;;2.75;1.90;;;;;;;;;;6173276;28;20615;-78
2022/06/23 20:43:55;;;;;;;2.20;2.00;;;;;;;;;;6176534;28;20229;-75
2022/06/23 20:47:27;;;;;;;1.95;1.80;;;;;;;;;;6167894;28;20225;-73
2022/06/23 20:50:49;;;;;;;1.83;1.67;;;;;;;;;;6168423;28;20233;-73
2022/06/23 20:54:14;;;;;;;2.38;1.75;;;;;;;;;;6172837;28;20237;-73
2022/06/23 20:57:39;;;;;;;2.40;2.17;;;;;;;;;;6171219;28;20237;-73